Time;durP1;ratioP1;P1;durP2;ratioP2;P2;SDS_P1;SDS_P2;PMS_P1;PMS_P2;Temp;Humidity;BMP_temperature;BMP_pressure;BME280_temperature;BME280_humidity;BME280_pressure;Samples;Min_cycle;Max_cycle;Signal;HPM_P1;HPM_P2
2022/10/07 00:02:13;;;;;;;1.70;1.38;;;9.20;99.90;;;;;;21041310;28;20044;-50
2022/10/07 00:12:16;;;;;;;2.28;1.10;;;9.00;99.90;;;;;;21055672;28;20031;-50
2022/10/07 00:22:18;;;;;;;2.50;1.20;;;9.00;99.90;;;;;;21061870;28;20086;-54
2022/10/07 00:32:21;;;;;;;1.45;1.20;;;9.20;99.90;;;;;;21039004;28;20081;-51
2022/10/07 00:42:23;;;;;;;2.30;1.15;;;9.30;99.90;;;;;;21198203;27;20557;-48
2022/10/07 00:52:30;;;;;;;1.60;1.08;;;9.60;99.90;;;;;;21221781;27;20087;-52
2022/10/07 01:02:36;;;;;;;2.35;1.20;;;9.60;99.90;;;;;;21134449;28;20027;-49
2022/10/07 01:12:39;;;;;;;2.45;1.20;;;9.50;99.90;;;;;;21206537;27;20030;-48
2022/10/07 01:23:00;;;;;;;1.50;1.15;;;9.50;99.90;;;;;;21177177;28;20096;-52
2022/10/07 01:33:12;;;;;;;2.03;1.48;;;9.40;99.90;;;;;;21158247;27;20091;-51
2022/10/07 01:43:18;;;;;;;2.15;1.02;;;9.00;99.90;;;;;;21238004;27;20108;-50
2022/10/07 01:53:48;;;;;;;5.18;1.85;;;8.70;99.90;;;;;;21187576;27;20032;-50
2022/10/07 02:03:57;;;;;;;2.75;1.23;;;8.70;99.90;;;;;;21151704;27;20468;-52
2022/10/07 02:14:11;;;;;;;1.08;0.82;;;8.80;99.90;;;;;;21150827;28;20505;-54
2022/10/07 02:24:17;;;;;;;3.80;1.20;;;8.80;99.90;;;;;;21207072;27;20504;-52
2022/10/07 02:34:23;;;;;;;5.13;1.35;;;8.60;99.90;;;;;;21217256;27;20044;-53
2022/10/07 02:44:33;;;;;;;0.88;0.80;;;8.50;99.90;;;;;;21131695;28;20446;-53
2022/10/07 02:54:42;;;;;;;1.58;0.68;;;8.50;99.90;;;;;;21130372;28;20028;-48
2022/10/07 03:04:47;;;;;;;1.30;0.73;;;8.60;99.90;;;;;;21146659;28;20385;-50
2022/10/07 03:14:50;;;;;;;3.67;0.60;;;8.90;99.90;;;;;;21146274;28;20031;-55
2022/10/07 03:24:55;;;;;;;2.15;0.80;;;9.20;99.90;;;;;;21146111;28;20044;-51
2022/10/07 03:34:58;;;;;;;1.00;0.55;;;9.30;99.90;;;;;;21127148;28;20453;-49
2022/10/07 03:45:02;;;;;;;2.20;0.70;;;9.30;99.90;;;;;;21143289;28;20390;-48
2022/10/07 03:55:07;;;;;;;1.35;0.55;;;9.20;99.90;;;;;;21141629;28;20035;-52
2022/10/07 04:05:10;;;;;;;1.20;0.47;;;9.00;99.90;;;;;;21142325;28;20035;-49
2022/10/07 04:15:14;;;;;;;6.13;0.60;;;8.90;99.90;;;;;;21124248;28;20031;-51
2022/10/07 04:25:34;;;;;;;2.40;0.70;;;8.80;99.90;;;;;;21139405;28;20035;-49
2022/10/07 04:35:42;;;;;;;2.38;0.70;;;8.50;99.90;;;;;;21123808;28;20052;-50
2022/10/07 04:45:52;;;;;;;3.60;0.60;;;8.40;99.90;;;;;;21038163;28;20040;-51
2022/10/07 04:55:59;;;;;;;1.10;0.50;;;8.30;99.90;;;;;;21053368;28;20028;-51
2022/10/07 05:06:03;;;;;;;2.17;0.63;;;8.20;99.90;;;;;;21054546;28;20032;-52
2022/10/07 05:16:10;;;;;;;2.03;0.68;;;8.10;99.90;;;;;;21056750;28;20032;-53
2022/10/07 05:26:14;;;;;;;1.73;0.60;;;7.90;99.90;;;;;;21055998;28;20036;-52
2022/10/07 05:36:20;;;;;;;4.40;0.60;;;7.90;99.90;;;;;;21055560;28;20044;-49
2022/10/07 05:46:26;;;;;;;1.42;0.60;;;7.80;99.90;;;;;;21055751;28;20036;-50
2022/10/07 05:56:35;;;;;;;3.10;0.63;;;7.90;99.90;;;;;;21054731;28;20032;-51
2022/10/07 06:06:38;;;;;;;1.70;0.73;;;8.10;99.90;;;;;;21031006;28;20032;-48
2022/10/07 06:16:43;;;;;;;0.73;0.50;;;8.30;99.90;;;;;;21050869;28;20036;-49
2022/10/07 06:26:48;;;;;;;3.22;0.60;;;8.30;99.90;;;;;;21069298;28;20035;-47
2022/10/07 06:36:53;;;;;;;3.20;0.60;;;8.40;99.90;;;;;;21093134;28;20036;-52
2022/10/07 06:46:57;;;;;;;2.90;0.70;;;8.50;99.90;;;;;;21153379;28;20434;-50
2022/10/07 06:56:59;;;;;;;2.33;0.75;;;8.70;99.90;;;;;;21151473;28;20088;-49
2022/10/07 07:07:02;;;;;;;4.43;0.70;;;9.10;99.90;;;;;;21150103;28;20031;-49
2022/10/07 07:17:05;;;;;;;2.70;0.50;;;9.90;99.90;;;;;;21149611;28;20372;-50
2022/10/07 07:27:08;;;;;;;2.67;0.75;;;10.90;99.90;;;;;;21147383;28;20040;-54
2022/10/07 07:37:11;;;;;;;2.35;0.88;;;11.80;99.90;;;;;;21131528;28;20048;-49
2022/10/07 07:47:21;;;;;;;1.15;1.00;;;12.70;99.90;;;;;;21130816;28;20039;-47
2022/10/07 07:57:26;;;;;;;2.45;0.93;;;13.60;99.90;;;;;;21147001;28;20088;-48
2022/10/07 08:07:29;;;;;;;1.75;1.23;;;14.70;99.90;;;;;;21144709;28;20045;-56
2022/10/07 08:17:31;;;;;;;1.50;0.90;;;15.70;99.90;;;;;;21144327;28;20027;-57
2022/10/07 08:27:37;;;;;;;3.13;1.20;;;16.60;99.90;;;;;;21145527;28;20100;-51
2022/10/07 08:37:39;;;;;;;2.95;1.20;;;17.20;99.90;;;;;;21126009;28;20043;-51
2022/10/07 08:47:44;;;;;;;2.30;1.20;;;17.70;99.90;;;;;;21125668;28;20080;-52
2022/10/07 08:57:48;;;;;;;2.63;1.60;;;18.30;99.90;;;;;;21125352;28;20036;-58
2022/10/07 09:07:57;;;;;;;4.70;1.60;;;18.60;99.90;;;;;;21140893;28;20031;-49
2022/10/07 09:18:04;;;;;;;;;;;18.70;99.90;;;;;;21140898;28;20108;-51
2022/10/07 09:28:17;;;;;;;2.35;1.30;;;18.90;99.90;;;;;;21140173;28;19976;-52
2022/10/07 09:38:39;;;;;;;2.85;1.40;;;19.30;99.50;;;;;;21139943;28;20098;-53
2022/10/07 09:48:54;;;;;;;3.13;1.40;;;19.60;99.90;;;;;;21147339;28;20031;-52
2022/10/07 09:59:19;;;;;;;2.28;1.50;;;19.70;99.90;;;;;;21155951;28;20561;-51
2022/10/07 10:09:23;;;;;;;1.42;1.15;;;20.20;98.80;;;;;;20886948;28;20037;-58
2022/10/07 10:19:27;;;;;;;2.22;1.40;;;20.40;99.10;;;;;;20895106;28;20048;-52
2022/10/07 10:29:50;;;;;;;3.50;1.70;;;20.50;98.00;;;;;;20894935;28;20045;-53
2022/10/07 10:40:30;;;;;;;4.28;1.70;;;20.80;99.20;;;;;;20953487;28;20561;-50
2022/10/07 10:50:45;;;;;;;3.13;1.48;;;21.00;98.90;;;;;;21151729;28;20105;-58
2022/10/07 11:00:54;;;;;;;1.45;1.35;;;21.00;97.60;;;;;;21151512;28;20214;-58
2022/10/07 11:11:01;;;;;;;2.97;1.70;;;21.20;97.60;;;;;;21149659;28;20028;-51
2022/10/07 11:21:08;;;;;;;6.43;2.08;;;21.40;97.10;;;;;;21132752;28;20040;-58
2022/10/07 11:31:35;;;;;;;2.45;2.25;;;21.30;97.20;;;;;;21132996;28;20059;-51
2022/10/07 11:42:10;;;;;;;3.28;2.20;;;21.20;99.30;;;;;;21147409;28;20405;-51
2022/10/07 11:52:39;;;;;;;2.40;2.08;;;21.10;97.90;;;;;;21147378;28;20057;-58
2022/10/07 12:02:45;;;;;;;2.53;2.30;;;21.00;96.90;;;;;;21145648;28;20496;-53
2022/10/07 12:12:54;;;;;;;6.30;2.97;;;21.00;98.60;;;;;;21144935;28;20035;-59
2022/10/07 12:23:24;;;;;;;6.00;3.00;;;21.10;99.10;;;;;;20985388;28;20045;-58
2022/10/07 12:33:57;;;;;;;3.95;3.20;;;21.00;99.90;;;;;;20951512;28;20040;-49
2022/10/07 12:44:21;;;;;;;6.15;3.00;;;20.70;99.90;;;;;;20885660;28;20696;-54
2022/10/07 12:54:55;;;;;;;5.90;3.42;;;20.70;99.90;;;;;;20933303;28;20040;-52
2022/10/07 13:05:24;;;;;;;4.03;3.42;;;20.80;99.90;;;;;;21057451;28;20032;-59
2022/10/07 13:15:52;;;;;;;4.10;3.67;;;20.70;99.90;;;;;;21057649;28;20097;-52
2022/10/07 13:25:58;;;;;;;4.77;3.57;;;20.60;99.90;;;;;;21055855;28;20560;-59
2022/10/07 13:36:22;;;;;;;4.60;3.70;;;20.00;99.90;;;;;;21054048;28;20070;-59
2022/10/07 13:46:28;;;;;;;7.15;4.07;;;19.30;99.90;;;;;;21057420;28;20032;-50
2022/10/07 13:56:30;;;;;;;4.65;4.07;;;18.60;99.90;;;;;;21055143;28;20375;-52
2022/10/07 14:06:48;;;;;;;6.35;4.50;;;18.10;99.90;;;;;;21038512;28;20036;-54
2022/10/07 14:16:57;;;;;;;7.93;4.55;;;17.70;99.90;;;;;;21038887;28;20373;-58
2022/10/07 14:27:00;;;;;;;8.20;4.35;;;17.30;99.90;;;;;;21054159;28;20093;-59
2022/10/07 14:37:15;;;;;;;7.05;4.68;;;16.80;99.90;;;;;;21064575;28;20036;-52
2022/10/07 14:47:20;;;;;;;6.18;4.68;;;16.50;99.90;;;;;;21068275;28;20050;-53
2022/10/07 14:57:26;;;;;;;7.80;4.65;;;16.10;99.90;;;;;;20852203;28;20497;-53
2022/10/07 15:07:29;;;;;;;5.75;4.72;;;15.70;99.90;;;;;;20833761;28;20042;-51
2022/10/07 15:17:32;;;;;;;6.75;4.57;;;15.30;99.90;;;;;;20792379;28;20196;-52
2022/10/07 15:27:36;;;;;;;7.53;4.63;;;15.00;99.90;;;;;;20836020;28;20115;-57
2022/10/07 15:37:44;;;;;;;6.93;4.18;;;14.40;99.90;;;;;;21028346;28;20044;-48
2022/10/07 15:47:49;;;;;;;7.80;3.17;;;13.50;99.90;;;;;;21146405;28;20556;-57
2022/10/07 15:57:51;;;;;;;4.20;2.92;;;12.70;99.90;;;;;;21146595;28;20028;-55
2022/10/07 16:07:55;;;;;;;4.22;2.55;;;12.00;99.90;;;;;;21145556;28;20112;-50
2022/10/07 16:17:57;;;;;;;9.52;5.55;;;11.70;99.90;;;;;;21127853;28;20450;-55
2022/10/07 16:38:21;;;;;;;5.03;2.63;;;11.00;99.90;;;;;;21142973;28;20039;-51
2022/10/07 16:48:24;;;;;;;7.18;3.20;;;10.70;99.90;;;;;;21125729;28;20035;-55
2022/10/07 16:58:27;;;;;;;7.32;3.30;;;10.70;99.90;;;;;;21142227;28;20036;-51
2022/10/07 17:08:33;;;;;;;8.32;3.40;;;10.40;99.90;;;;;;21141363;28;20396;-54
2022/10/07 17:18:35;;;;;;;7.63;3.22;;;10.20;99.90;;;;;;21171923;27;20032;-50
2022/10/07 17:28:38;;;;;;;4.75;2.40;;;10.00;99.90;;;;;;21141485;28;20027;-51
2022/10/07 17:38:43;;;;;;;7.03;3.10;;;9.70;99.90;;;;;;21123209;28;20093;-52
2022/10/07 17:48:55;;;;;;;4.97;2.70;;;9.50;99.90;;;;;;21140273;28;20040;-50
2022/10/07 17:58:58;;;;;;;4.45;2.72;;;9.40;99.90;;;;;;21138591;28;20362;-49
2022/10/07 18:09:04;;;;;;;5.60;2.67;;;9.20;99.90;;;;;;21130022;28;20077;-55
2022/10/07 18:19:07;;;;;;;3.70;1.92;;;9.00;99.90;;;;;;21154971;28;20434;-53
2022/10/07 18:29:10;;;;;;;3.00;1.50;;;9.00;99.90;;;;;;21153936;28;20063;-50
2022/10/07 18:39:13;;;;;;;6.43;1.30;;;9.00;99.90;;;;;;21152764;28;20108;-50
2022/10/07 18:49:15;;;;;;;2.25;1.02;;;8.60;99.90;;;;;;21135607;28;20039;-51
2022/10/07 18:59:19;;;;;;;4.03;1.10;;;8.40;99.90;;;;;;21135002;28;20081;-51
2022/10/07 19:09:22;;;;;;;3.50;1.30;;;8.30;99.90;;;;;;21125612;28;20061;-55
2022/10/07 19:19:25;;;;;;;4.13;1.10;;;8.20;99.90;;;;;;21149403;28;20116;-55
2022/10/07 19:29:28;;;;;;;1.48;0.80;;;8.10;99.90;;;;;;21149822;28;20035;-49
2022/10/07 19:39:31;;;;;;;1.20;0.70;;;8.10;99.90;;;;;;21148601;28;20043;-53
2022/10/07 19:49:33;;;;;;;1.85;0.50;;;8.00;99.90;;;;;;21148473;28;20040;-50
2022/10/07 19:59:36;;;;;;;2.35;0.40;;;8.10;99.90;;;;;;21130183;28;20545;-49
2022/10/07 20:09:39;;;;;;;2.63;0.40;;;8.00;99.90;;;;;;21128537;28;20047;-50
2022/10/07 20:19:42;;;;;;;2.67;0.50;;;8.00;99.90;;;;;;21128128;28;20411;-52
2022/10/07 20:29:56;;;;;;;4.13;0.40;;;8.00;99.90;;;;;;21143790;28;20028;-51
2022/10/07 20:50:20;;;;;;;0.80;0.60;;;8.10;99.90;;;;;;21108897;28;20031;-49
2022/10/07 21:00:22;;;;;;;2.30;0.63;;;8.10;99.90;;;;;;21067457;28;20028;-49
2022/10/07 21:10:27;;;;;;;3.47;0.52;;;8.10;99.90;;;;;;21096937;28;20400;-50
2022/10/07 21:20:29;;;;;;;1.65;0.45;;;8.00;99.90;;;;;;21071864;28;20093;-51
2022/10/07 21:30:32;;;;;;;4.53;0.57;;;8.10;99.90;;;;;;21140613;28;20404;-52
2022/10/07 21:40:34;;;;;;;4.05;0.47;;;7.90;99.90;;;;;;21125086;28;20039;-55
2022/10/07 21:50:55;;;;;;;1.10;0.50;;;7.90;99.90;;;;;;21171948;28;20028;-51
2022/10/07 22:01:06;;;;;;;1.42;0.60;;;7.90;99.90;;;;;;21139575;28;20096;-50
2022/10/07 22:11:11;;;;;;;2.60;0.63;;;7.90;99.90;;;;;;21155236;28;20404;-51
2022/10/07 22:21:21;;;;;;;2.13;0.70;;;7.90;99.90;;;;;;21137636;28;20031;-52
2022/10/07 22:31:25;;;;;;;1.60;0.67;;;7.90;99.90;;;;;;21153772;28;20415;-49
2022/10/07 22:41:28;;;;;;;2.65;0.77;;;8.10;99.90;;;;;;21148769;28;20493;-52
2022/10/07 22:51:31;;;;;;;3.72;0.80;;;8.00;99.90;;;;;;21146986;28;20024;-50
2022/10/07 23:01:34;;;;;;;4.68;1.20;;;7.90;99.90;;;;;;21146721;28;20035;-49
2022/10/07 23:11:37;;;;;;;4.93;0.73;;;7.90;99.90;;;;;;21135927;28;20036;-50
2022/10/07 23:21:39;;;;;;;1.88;0.98;;;8.00;99.90;;;;;;21128348;28;20032;-52
2022/10/07 23:31:43;;;;;;;2.80;1.00;;;8.30;99.90;;;;;;21144905;28;20035;-48
2022/10/07 23:41:46;;;;;;;2.17;0.95;;;8.10;99.90;;;;;;21081681;28;1404386;-52
2022/10/07 23:51:48;;;;;;;4.30;1.38;;;8.10;99.90;;;;;;21147298;28;20028;-49
